sensor_id;sensor_type;location;lat;lon;timestamp;P1;durP1;ratioP1;P2;durP2;ratioP2
8871;SDS011;4472;52.092;9.820;2023-06-10T00:00:05;7.67;;;4.90;;
8871;SDS011;4472;52.092;9.820;2023-06-10T00:02:53;4.47;;;4.00;;
8871;SDS011;4472;52.092;9.820;2023-06-10T00:05:42;8.53;;;4.67;;
8871;SDS011;4472;52.092;9.820;2023-06-10T00:08:29;5.83;;;4.63;;
8871;SDS011;4472;52.092;9.820;2023-06-10T00:11:16;8.13;;;5.20;;
8871;SDS011;4472;52.092;9.820;2023-06-10T00:14:03;5.53;;;4.23;;
8871;SDS011;4472;52.092;9.820;2023-06-10T00:16:51;6.10;;;4.33;;
8871;SDS011;4472;52.092;9.820;2023-06-10T00:19:38;5.73;;;4.53;;
8871;SDS011;4472;52.092;9.820;2023-06-10T00:22:28;6.23;;;4.77;;
8871;SDS011;4472;52.092;9.820;2023-06-10T00:25:17;6.60;;;4.67;;
8871;SDS011;4472;52.092;9.820;2023-06-10T00:28:04;6.23;;;4.50;;
8871;SDS011;4472;52.092;9.820;2023-06-10T00:30:52;5.97;;;4.30;;
8871;SDS011;4472;52.092;9.820;2023-06-10T00:33:39;8.23;;;4.90;;
8871;SDS011;4472;52.092;9.820;2023-06-10T00:36:26;6.17;;;4.70;;
8871;SDS011;4472;52.092;9.820;2023-06-10T00:39:15;7.00;;;4.80;;
8871;SDS011;4472;52.092;9.820;2023-06-10T00:42:02;5.70;;;4.50;;
8871;SDS011;4472;52.092;9.820;2023-06-10T00:44:53;10.50;;;4.87;;
8871;SDS011;4472;52.092;9.820;2023-06-10T00:47:40;12.47;;;4.90;;
8871;SDS011;4472;52.092;9.820;2023-06-10T00:50:27;5.43;;;4.50;;
8871;SDS011;4472;52.092;9.820;2023-06-10T00:53:14;8.63;;;4.80;;
8871;SDS011;4472;52.092;9.820;2023-06-10T00:56:04;6.87;;;4.70;;
8871;SDS011;4472;52.092;9.820;2023-06-10T00:58:51;6.57;;;5.27;;
8871;SDS011;4472;52.092;9.820;2023-06-10T01:01:38;8.50;;;5.27;;
8871;SDS011;4472;52.092;9.820;2023-06-10T01:04:26;7.87;;;4.83;;
8871;SDS011;4472;52.092;9.820;2023-06-10T01:07:15;10.00;;;5.10;;
8871;SDS011;4472;52.092;9.820;2023-06-10T01:10:10;7.23;;;5.03;;
8871;SDS011;4472;52.092;9.820;2023-06-10T01:13:05;6.40;;;5.30;;
8871;SDS011;4472;52.092;9.820;2023-06-10T01:15:57;5.97;;;4.77;;
8871;SDS011;4472;52.092;9.820;2023-06-10T01:18:45;8.90;;;5.40;;
8871;SDS011;4472;52.092;9.820;2023-06-10T01:21:33;7.87;;;5.53;;
8871;SDS011;4472;52.092;9.820;2023-06-10T01:24:20;7.57;;;5.17;;
8871;SDS011;4472;52.092;9.820;2023-06-10T01:27:09;6.03;;;4.70;;
8871;SDS011;4472;52.092;9.820;2023-06-10T01:30:04;5.97;;;4.60;;
8871;SDS011;4472;52.092;9.820;2023-06-10T01:32:59;7.27;;;4.53;;
8871;SDS011;4472;52.092;9.820;2023-06-10T01:35:48;7.70;;;4.73;;
8871;SDS011;4472;52.092;9.820;2023-06-10T01:38:39;6.87;;;4.67;;
8871;SDS011;4472;52.092;9.820;2023-06-10T01:41:28;5.53;;;4.50;;
8871;SDS011;4472;52.092;9.820;2023-06-10T01:44:17;7.23;;;4.50;;
8871;SDS011;4472;52.092;9.820;2023-06-10T01:47:06;8.30;;;5.17;;
8871;SDS011;4472;52.092;9.820;2023-06-10T01:49:53;8.77;;;4.50;;
8871;SDS011;4472;52.092;9.820;2023-06-10T01:52:40;7.97;;;4.83;;
8871;SDS011;4472;52.092;9.820;2023-06-10T01:55:28;6.80;;;4.77;;
8871;SDS011;4472;52.092;9.820;2023-06-10T01:58:15;7.00;;;4.90;;
8871;SDS011;4472;52.092;9.820;2023-06-10T02:01:03;9.83;;;4.67;;
8871;SDS011;4472;52.092;9.820;2023-06-10T02:03:50;7.70;;;4.53;;
8871;SDS011;4472;52.092;9.820;2023-06-10T02:06:37;6.50;;;4.60;;
8871;SDS011;4472;52.092;9.820;2023-06-10T02:09:24;8.63;;;4.70;;
8871;SDS011;4472;52.092;9.820;2023-06-10T02:12:13;9.33;;;5.20;;
8871;SDS011;4472;52.092;9.820;2023-06-10T02:15:00;5.33;;;4.67;;
8871;SDS011;4472;52.092;9.820;2023-06-10T02:17:47;7.70;;;4.90;;
8871;SDS011;4472;52.092;9.820;2023-06-10T02:20:36;6.67;;;4.30;;
8871;SDS011;4472;52.092;9.820;2023-06-10T02:23:23;8.40;;;4.73;;
8871;SDS011;4472;52.092;9.820;2023-06-10T02:26:10;6.33;;;4.53;;
8871;SDS011;4472;52.092;9.820;2023-06-10T02:28:58;6.80;;;4.43;;
8871;SDS011;4472;52.092;9.820;2023-06-10T02:31:45;9.47;;;4.50;;
8871;SDS011;4472;52.092;9.820;2023-06-10T02:34:33;8.53;;;4.87;;
8871;SDS011;4472;52.092;9.820;2023-06-10T02:37:21;7.80;;;4.67;;
8871;SDS011;4472;52.092;9.820;2023-06-10T02:40:09;8.93;;;4.60;;
8871;SDS011;4472;52.092;9.820;2023-06-10T02:42:57;8.87;;;5.00;;
8871;SDS011;4472;52.092;9.820;2023-06-10T02:45:46;7.63;;;5.10;;
8871;SDS011;4472;52.092;9.820;2023-06-10T02:48:38;8.00;;;4.67;;
8871;SDS011;4472;52.092;9.820;2023-06-10T02:51:27;8.60;;;5.10;;
8871;SDS011;4472;52.092;9.820;2023-06-10T02:54:14;8.40;;;5.43;;
8871;SDS011;4472;52.092;9.820;2023-06-10T02:57:02;10.07;;;5.00;;
8871;SDS011;4472;52.092;9.820;2023-06-10T02:59:49;11.20;;;5.30;;
8871;SDS011;4472;52.092;9.820;2023-06-10T03:02:38;8.20;;;5.07;;
8871;SDS011;4472;52.092;9.820;2023-06-10T03:05:25;7.57;;;4.97;;
8871;SDS011;4472;52.092;9.820;2023-06-10T03:08:12;8.30;;;5.23;;
8871;SDS011;4472;52.092;9.820;2023-06-10T03:10:59;8.33;;;4.87;;
8871;SDS011;4472;52.092;9.820;2023-06-10T03:13:46;8.87;;;5.40;;
8871;SDS011;4472;52.092;9.820;2023-06-10T03:16:34;7.87;;;5.20;;
8871;SDS011;4472;52.092;9.820;2023-06-10T03:19:22;9.40;;;5.20;;
8871;SDS011;4472;52.092;9.820;2023-06-10T03:22:10;6.03;;;5.43;;
8871;SDS011;4472;52.092;9.820;2023-06-10T03:24:58;8.63;;;5.40;;
8871;SDS011;4472;52.092;9.820;2023-06-10T03:27:45;7.43;;;5.23;;
8871;SDS011;4472;52.092;9.820;2023-06-10T03:30:32;8.83;;;5.87;;
8871;SDS011;4472;52.092;9.820;2023-06-10T03:33:19;8.87;;;5.57;;
8871;SDS011;4472;52.092;9.820;2023-06-10T03:36:08;8.03;;;5.50;;
8871;SDS011;4472;52.092;9.820;2023-06-10T03:38:56;9.30;;;5.80;;
8871;SDS011;4472;52.092;9.820;2023-06-10T03:41:43;6.07;;;5.00;;
8871;SDS011;4472;52.092;9.820;2023-06-10T03:44:30;9.03;;;5.87;;
8871;SDS011;4472;52.092;9.820;2023-06-10T03:47:17;10.10;;;5.90;;
8871;SDS011;4472;52.092;9.820;2023-06-10T03:50:04;11.37;;;5.70;;
8871;SDS011;4472;52.092;9.820;2023-06-10T03:52:54;7.13;;;6.40;;
8871;SDS011;4472;52.092;9.820;2023-06-10T03:55:42;16.90;;;6.67;;
8871;SDS011;4472;52.092;9.820;2023-06-10T03:58:30;11.60;;;5.53;;
8871;SDS011;4472;52.092;9.820;2023-06-10T04:01:17;8.50;;;5.73;;
8871;SDS011;4472;52.092;9.820;2023-06-10T04:04:06;9.87;;;5.37;;
8871;SDS011;4472;52.092;9.820;2023-06-10T04:06:53;7.80;;;5.87;;
8871;SDS011;4472;52.092;9.820;2023-06-10T04:09:41;9.27;;;5.50;;
8871;SDS011;4472;52.092;9.820;2023-06-10T04:12:29;6.47;;;5.77;;
8871;SDS011;4472;52.092;9.820;2023-06-10T04:15:16;7.20;;;5.80;;
8871;SDS011;4472;52.092;9.820;2023-06-10T04:18:04;6.73;;;5.60;;
8871;SDS011;4472;52.092;9.820;2023-06-10T04:20:51;8.40;;;5.60;;
8871;SDS011;4472;52.092;9.820;2023-06-10T04:23:38;11.27;;;6.00;;
8871;SDS011;4472;52.092;9.820;2023-06-10T04:26:27;9.37;;;5.87;;
8871;SDS011;4472;52.092;9.820;2023-06-10T04:29:14;11.60;;;6.03;;
8871;SDS011;4472;52.092;9.820;2023-06-10T04:32:01;10.47;;;5.90;;
8871;SDS011;4472;52.092;9.820;2023-06-10T04:34:48;10.13;;;5.80;;
8871;SDS011;4472;52.092;9.820;2023-06-10T04:37:35;10.63;;;6.57;;
8871;SDS011;4472;52.092;9.820;2023-06-10T04:40:23;10.63;;;6.40;;
8871;SDS011;4472;52.092;9.820;2023-06-10T04:43:11;9.57;;;6.40;;
8871;SDS011;4472;52.092;9.820;2023-06-10T04:45:58;11.83;;;6.50;;
8871;SDS011;4472;52.092;9.820;2023-06-10T04:48:45;11.30;;;6.40;;
8871;SDS011;4472;52.092;9.820;2023-06-10T04:51:33;14.20;;;6.20;;
8871;SDS011;4472;52.092;9.820;2023-06-10T04:54:21;10.97;;;6.53;;
8871;SDS011;4472;52.092;9.820;2023-06-10T04:57:08;11.70;;;6.77;;
8871;SDS011;4472;52.092;9.820;2023-06-10T04:59:58;11.70;;;7.10;;
8871;SDS011;4472;52.092;9.820;2023-06-10T05:02:45;12.17;;;7.17;;
8871;SDS011;4472;52.092;9.820;2023-06-10T05:05:34;12.37;;;7.47;;
8871;SDS011;4472;52.092;9.820;2023-06-10T05:08:22;12.83;;;7.90;;
8871;SDS011;4472;52.092;9.820;2023-06-10T05:11:09;14.97;;;8.00;;
8871;SDS011;4472;52.092;9.820;2023-06-10T05:13:56;16.63;;;8.53;;
8871;SDS011;4472;52.092;9.820;2023-06-10T05:16:44;12.33;;;8.27;;
8871;SDS011;4472;52.092;9.820;2023-06-10T05:19:31;14.20;;;8.73;;
8871;SDS011;4472;52.092;9.820;2023-06-10T05:22:21;10.47;;;7.57;;
8871;SDS011;4472;52.092;9.820;2023-06-10T05:25:09;10.83;;;8.17;;
8871;SDS011;4472;52.092;9.820;2023-06-10T05:27:56;10.73;;;8.17;;
8871;SDS011;4472;52.092;9.820;2023-06-10T05:30:43;15.17;;;9.20;;
8871;SDS011;4472;52.092;9.820;2023-06-10T05:33:32;13.00;;;8.87;;
8871;SDS011;4472;52.092;9.820;2023-06-10T05:36:19;11.80;;;8.50;;
8871;SDS011;4472;52.092;9.820;2023-06-10T05:39:06;11.37;;;8.50;;
8871;SDS011;4472;52.092;9.820;2023-06-10T05:41:54;15.70;;;8.57;;
8871;SDS011;4472;52.092;9.820;2023-06-10T05:44:41;14.97;;;8.97;;
8871;SDS011;4472;52.092;9.820;2023-06-10T05:47:28;14.97;;;9.23;;
8871;SDS011;4472;52.092;9.820;2023-06-10T05:50:16;12.80;;;8.90;;
8871;SDS011;4472;52.092;9.820;2023-06-10T05:53:04;14.93;;;10.53;;
8871;SDS011;4472;52.092;9.820;2023-06-10T05:55:52;15.57;;;11.00;;
8871;SDS011;4472;52.092;9.820;2023-06-10T05:58:42;14.43;;;11.07;;
8871;SDS011;4472;52.092;9.820;2023-06-10T06:01:30;13.93;;;11.03;;
8871;SDS011;4472;52.092;9.820;2023-06-10T06:04:17;15.13;;;11.30;;
8871;SDS011;4472;52.092;9.820;2023-06-10T06:07:05;14.40;;;10.30;;
8871;SDS011;4472;52.092;9.820;2023-06-10T06:09:52;17.73;;;11.00;;
8871;SDS011;4472;52.092;9.820;2023-06-10T06:12:40;12.87;;;10.43;;
8871;SDS011;4472;52.092;9.820;2023-06-10T06:15:27;14.53;;;10.70;;
8871;SDS011;4472;52.092;9.820;2023-06-10T06:18:14;19.33;;;11.67;;
8871;SDS011;4472;52.092;9.820;2023-06-10T06:21:01;16.10;;;11.73;;
8871;SDS011;4472;52.092;9.820;2023-06-10T06:23:50;17.73;;;12.37;;
8871;SDS011;4472;52.092;9.820;2023-06-10T06:26:37;14.53;;;12.07;;
8871;SDS011;4472;52.092;9.820;2023-06-10T06:29:24;16.07;;;11.53;;
8871;SDS011;4472;52.092;9.820;2023-06-10T06:32:11;16.30;;;12.67;;
8871;SDS011;4472;52.092;9.820;2023-06-10T06:34:58;17.53;;;13.20;;
8871;SDS011;4472;52.092;9.820;2023-06-10T06:37:45;19.10;;;13.37;;
8871;SDS011;4472;52.092;9.820;2023-06-10T06:40:34;19.67;;;14.57;;
8871;SDS011;4472;52.092;9.820;2023-06-10T06:43:21;18.13;;;13.63;;
8871;SDS011;4472;52.092;9.820;2023-06-10T06:46:09;18.67;;;13.63;;
8871;SDS011;4472;52.092;9.820;2023-06-10T06:48:56;18.87;;;14.03;;
8871;SDS011;4472;52.092;9.820;2023-06-10T06:51:43;18.17;;;14.47;;
8871;SDS011;4472;52.092;9.820;2023-06-10T06:54:30;16.20;;;13.67;;
8871;SDS011;4472;52.092;9.820;2023-06-10T06:57:19;20.83;;;15.33;;
8871;SDS011;4472;52.092;9.820;2023-06-10T07:00:06;18.73;;;14.67;;
8871;SDS011;4472;52.092;9.820;2023-06-10T07:02:54;18.97;;;13.93;;
8871;SDS011;4472;52.092;9.820;2023-06-10T07:05:42;20.37;;;15.07;;
8871;SDS011;4472;52.092;9.820;2023-06-10T07:08:29;19.63;;;15.40;;
8871;SDS011;4472;52.092;9.820;2023-06-10T07:11:16;22.07;;;16.57;;
8871;SDS011;4472;52.092;9.820;2023-06-10T07:14:05;20.37;;;16.40;;
8871;SDS011;4472;52.092;9.820;2023-06-10T07:16:53;20.27;;;16.47;;
8871;SDS011;4472;52.092;9.820;2023-06-10T07:19:40;21.57;;;16.97;;
8871;SDS011;4472;52.092;9.820;2023-06-10T07:22:27;23.73;;;17.57;;
8871;SDS011;4472;52.092;9.820;2023-06-10T07:25:14;22.13;;;16.17;;
8871;SDS011;4472;52.092;9.820;2023-06-10T07:28:02;22.30;;;17.50;;
8871;SDS011;4472;52.092;9.820;2023-06-10T07:30:50;22.40;;;15.13;;
8871;SDS011;4472;52.092;9.820;2023-06-10T07:33:38;23.83;;;15.77;;
8871;SDS011;4472;52.092;9.820;2023-06-10T07:36:25;21.87;;;16.00;;
8871;SDS011;4472;52.092;9.820;2023-06-10T07:39:13;21.23;;;15.90;;
8871;SDS011;4472;52.092;9.820;2023-06-10T07:42:01;21.97;;;16.33;;
8871;SDS011;4472;52.092;9.820;2023-06-10T07:44:48;24.67;;;15.33;;
8871;SDS011;4472;52.092;9.820;2023-06-10T07:47:37;21.67;;;14.93;;
8871;SDS011;4472;52.092;9.820;2023-06-10T07:50:24;17.40;;;13.80;;
8871;SDS011;4472;52.092;9.820;2023-06-10T07:53:11;21.87;;;14.60;;
8871;SDS011;4472;52.092;9.820;2023-06-10T07:55:58;18.47;;;13.37;;
8871;SDS011;4472;52.092;9.820;2023-06-10T07:58:45;17.67;;;14.00;;
8871;SDS011;4472;52.092;9.820;2023-06-10T08:01:32;19.20;;;13.70;;
8871;SDS011;4472;52.092;9.820;2023-06-10T08:04:22;16.97;;;14.33;;
8871;SDS011;4472;52.092;9.820;2023-06-10T08:07:09;16.07;;;12.97;;
8871;SDS011;4472;52.092;9.820;2023-06-10T08:09:56;18.27;;;13.37;;
8871;SDS011;4472;52.092;9.820;2023-06-10T08:12:44;15.53;;;12.20;;
8871;SDS011;4472;52.092;9.820;2023-06-10T08:15:31;14.87;;;12.00;;
8871;SDS011;4472;52.092;9.820;2023-06-10T08:18:18;12.87;;;10.30;;
8871;SDS011;4472;52.092;9.820;2023-06-10T08:21:07;13.60;;;10.30;;
8871;SDS011;4472;52.092;9.820;2023-06-10T08:23:54;11.57;;;9.63;;
8871;SDS011;4472;52.092;9.820;2023-06-10T08:26:41;12.40;;;10.13;;
8871;SDS011;4472;52.092;9.820;2023-06-10T08:29:28;11.80;;;9.40;;
8871;SDS011;4472;52.092;9.820;2023-06-10T08:32:16;12.60;;;9.30;;
8871;SDS011;4472;52.092;9.820;2023-06-10T08:35:04;13.73;;;10.60;;
8871;SDS011;4472;52.092;9.820;2023-06-10T08:37:52;15.53;;;10.13;;
8871;SDS011;4472;52.092;9.820;2023-06-10T08:40:39;13.53;;;10.23;;
8871;SDS011;4472;52.092;9.820;2023-06-10T08:43:29;10.73;;;9.47;;
8871;SDS011;4472;52.092;9.820;2023-06-10T08:46:20;11.33;;;8.50;;
8871;SDS011;4472;52.092;9.820;2023-06-10T08:49:07;12.47;;;7.77;;
8871;SDS011;4472;52.092;9.820;2023-06-10T08:51:55;8.63;;;7.23;;
8871;SDS011;4472;52.092;9.820;2023-06-10T08:54:48;12.80;;;7.10;;
8871;SDS011;4472;52.092;9.820;2023-06-10T08:57:38;11.63;;;6.80;;
8871;SDS011;4472;52.092;9.820;2023-06-10T09:00:28;9.43;;;6.27;;
8871;SDS011;4472;52.092;9.820;2023-06-10T09:03:16;8.90;;;6.40;;
8871;SDS011;4472;52.092;9.820;2023-06-10T09:06:04;7.10;;;6.13;;
8871;SDS011;4472;52.092;9.820;2023-06-10T09:08:52;9.10;;;6.03;;
8871;SDS011;4472;52.092;9.820;2023-06-10T09:11:41;9.87;;;6.30;;
8871;SDS011;4472;52.092;9.820;2023-06-10T09:14:29;7.90;;;5.53;;
8871;SDS011;4472;52.092;9.820;2023-06-10T09:17:16;9.97;;;5.60;;
8871;SDS011;4472;52.092;9.820;2023-06-10T09:20:04;10.40;;;5.90;;
8871;SDS011;4472;52.092;9.820;2023-06-10T09:22:52;11.20;;;5.80;;
8871;SDS011;4472;52.092;9.820;2023-06-10T09:25:40;11.70;;;5.67;;
8871;SDS011;4472;52.092;9.820;2023-06-10T09:28:28;9.03;;;5.57;;
8871;SDS011;4472;52.092;9.820;2023-06-10T09:31:15;8.93;;;5.67;;
8871;SDS011;4472;52.092;9.820;2023-06-10T09:34:07;10.27;;;6.13;;
8871;SDS011;4472;52.092;9.820;2023-06-10T09:36:55;7.00;;;5.40;;
8871;SDS011;4472;52.092;9.820;2023-06-10T09:39:42;10.03;;;5.90;;
8871;SDS011;4472;52.092;9.820;2023-06-10T09:42:30;10.77;;;5.73;;
8871;SDS011;4472;52.092;9.820;2023-06-10T09:45:20;8.37;;;5.97;;
8871;SDS011;4472;52.092;9.820;2023-06-10T09:48:08;9.97;;;6.27;;
8871;SDS011;4472;52.092;9.820;2023-06-10T09:50:56;8.17;;;5.53;;
8871;SDS011;4472;52.092;9.820;2023-06-10T09:53:43;8.63;;;5.20;;
8871;SDS011;4472;52.092;9.820;2023-06-10T09:56:34;13.03;;;6.10;;
8871;SDS011;4472;52.092;9.820;2023-06-10T09:59:29;9.00;;;5.50;;
8871;SDS011;4472;52.092;9.820;2023-06-10T10:02:18;9.77;;;5.80;;
8871;SDS011;4472;52.092;9.820;2023-06-10T10:05:05;6.90;;;5.40;;
8871;SDS011;4472;52.092;9.820;2023-06-10T10:07:53;14.13;;;5.83;;
8871;SDS011;4472;52.092;9.820;2023-06-10T10:10:41;9.57;;;6.33;;
8871;SDS011;4472;52.092;9.820;2023-06-10T10:13:28;10.17;;;6.30;;
8871;SDS011;4472;52.092;9.820;2023-06-10T10:16:19;11.37;;;6.27;;
8871;SDS011;4472;52.092;9.820;2023-06-10T10:19:10;8.60;;;5.97;;
8871;SDS011;4472;52.092;9.820;2023-06-10T10:22:01;9.70;;;5.97;;
8871;SDS011;4472;52.092;9.820;2023-06-10T10:24:56;8.70;;;5.67;;
8871;SDS011;4472;52.092;9.820;2023-06-10T10:27:47;9.43;;;5.50;;
8871;SDS011;4472;52.092;9.820;2023-06-10T10:30:39;11.10;;;6.40;;
8871;SDS011;4472;52.092;9.820;2023-06-10T10:33:29;11.20;;;5.93;;
8871;SDS011;4472;52.092;9.820;2023-06-10T10:36:24;10.93;;;6.00;;
8871;SDS011;4472;52.092;9.820;2023-06-10T10:39:11;8.33;;;5.90;;
8871;SDS011;4472;52.092;9.820;2023-06-10T10:41:59;9.67;;;6.20;;
8871;SDS011;4472;52.092;9.820;2023-06-10T10:44:49;8.23;;;6.40;;
8871;SDS011;4472;52.092;9.820;2023-06-10T10:47:37;7.77;;;5.60;;
8871;SDS011;4472;52.092;9.820;2023-06-10T10:50:25;7.87;;;5.90;;
8871;SDS011;4472;52.092;9.820;2023-06-10T10:53:20;11.00;;;5.97;;
8871;SDS011;4472;52.092;9.820;2023-06-10T10:56:07;8.73;;;6.30;;
8871;SDS011;4472;52.092;9.820;2023-06-10T10:59:02;9.87;;;6.37;;
8871;SDS011;4472;52.092;9.820;2023-06-10T11:01:50;7.20;;;5.70;;
8871;SDS011;4472;52.092;9.820;2023-06-10T11:04:38;8.13;;;6.40;;
8871;SDS011;4472;52.092;9.820;2023-06-10T11:07:32;8.50;;;6.17;;
8871;SDS011;4472;52.092;9.820;2023-06-10T11:10:28;9.40;;;6.70;;
8871;SDS011;4472;52.092;9.820;2023-06-10T11:13:18;9.00;;;6.13;;
8871;SDS011;4472;52.092;9.820;2023-06-10T11:16:06;11.15;;;6.00;;
8871;SDS011;4472;52.092;9.820;2023-06-10T11:18:56;9.93;;;6.40;;
8871;SDS011;4472;52.092;9.820;2023-06-10T11:24:52;8.80;;;6.97;;
8871;SDS011;4472;52.092;9.820;2023-06-10T11:27:41;9.37;;;6.53;;
8871;SDS011;4472;52.092;9.820;2023-06-10T11:30:28;9.83;;;6.50;;
8871;SDS011;4472;52.092;9.820;2023-06-10T11:33:21;8.87;;;6.13;;
8871;SDS011;4472;52.092;9.820;2023-06-10T11:36:09;10.97;;;6.80;;
8871;SDS011;4472;52.092;9.820;2023-06-10T11:38:56;6.47;;;5.70;;
8871;SDS011;4472;52.092;9.820;2023-06-10T11:41:45;10.07;;;6.30;;
8871;SDS011;4472;52.092;9.820;2023-06-10T11:44:33;12.30;;;6.37;;
8871;SDS011;4472;52.092;9.820;2023-06-10T11:47:23;9.13;;;5.63;;
8871;SDS011;4472;52.092;9.820;2023-06-10T11:50:12;10.57;;;6.18;;
8871;SDS011;4472;52.092;9.820;2023-06-10T11:52:59;8.67;;;5.97;;
8871;SDS011;4472;52.092;9.820;2023-06-10T11:55:46;10.67;;;6.80;;
8871;SDS011;4472;52.092;9.820;2023-06-10T11:58:34;7.20;;;5.43;;
8871;SDS011;4472;52.092;9.820;2023-06-10T12:01:24;10.70;;;6.00;;
8871;SDS011;4472;52.092;9.820;2023-06-10T12:04:13;7.23;;;5.87;;
8871;SDS011;4472;52.092;9.820;2023-06-10T12:07:03;11.30;;;7.10;;
8871;SDS011;4472;52.092;9.820;2023-06-10T12:09:58;9.23;;;6.63;;
8871;SDS011;4472;52.092;9.820;2023-06-10T12:12:46;9.38;;;6.40;;
8871;SDS011;4472;52.092;9.820;2023-06-10T12:15:33;7.77;;;6.40;;
8871;SDS011;4472;52.092;9.820;2023-06-10T12:18:22;6.83;;;5.90;;
8871;SDS011;4472;52.092;9.820;2023-06-10T12:21:16;7.88;;;6.00;;
8871;SDS011;4472;52.092;9.820;2023-06-10T12:24:05;11.15;;;6.40;;
8871;SDS011;4472;52.092;9.820;2023-06-10T12:26:54;9.32;;;6.43;;
8871;SDS011;4472;52.092;9.820;2023-06-10T12:29:50;7.53;;;5.68;;
8871;SDS011;4472;52.092;9.820;2023-06-10T12:32:40;7.65;;;6.00;;
8871;SDS011;4472;52.092;9.820;2023-06-10T12:35:29;6.68;;;6.00;;
8871;SDS011;4472;52.092;9.820;2023-06-10T12:38:20;6.63;;;6.00;;
8871;SDS011;4472;52.092;9.820;2023-06-10T12:41:09;6.75;;;5.30;;
8871;SDS011;4472;52.092;9.820;2023-06-10T12:43:57;8.98;;;5.78;;
8871;SDS011;4472;52.092;9.820;2023-06-10T12:46:44;7.00;;;6.28;;
8871;SDS011;4472;52.092;9.820;2023-06-10T12:49:32;6.47;;;5.68;;
8871;SDS011;4472;52.092;9.820;2023-06-10T12:52:21;7.93;;;6.00;;
8871;SDS011;4472;52.092;9.820;2023-06-10T12:55:09;10.43;;;6.50;;
8871;SDS011;4472;52.092;9.820;2023-06-10T12:57:56;9.02;;;6.43;;
8871;SDS011;4472;52.092;9.820;2023-06-10T13:00:43;7.75;;;5.18;;
8871;SDS011;4472;52.092;9.820;2023-06-10T13:03:30;7.18;;;5.70;;
8871;SDS011;4472;52.092;9.820;2023-06-10T13:06:17;10.52;;;6.60;;
8871;SDS011;4472;52.092;9.820;2023-06-10T13:09:07;9.82;;;5.95;;
8871;SDS011;4472;52.092;9.820;2023-06-10T13:11:54;7.70;;;6.03;;
8871;SDS011;4472;52.092;9.820;2023-06-10T13:14:41;10.23;;;5.45;;
8871;SDS011;4472;52.092;9.820;2023-06-10T13:17:28;8.55;;;6.15;;
8871;SDS011;4472;52.092;9.820;2023-06-10T13:20:15;6.90;;;5.90;;
8871;SDS011;4472;52.092;9.820;2023-06-10T13:23:03;6.82;;;6.00;;
8871;SDS011;4472;52.092;9.820;2023-06-10T13:25:51;7.72;;;6.43;;
8871;SDS011;4472;52.092;9.820;2023-06-10T13:28:39;8.38;;;5.95;;
8871;SDS011;4472;52.092;9.820;2023-06-10T13:31:26;6.63;;;5.88;;
8871;SDS011;4472;52.092;9.820;2023-06-10T13:34:13;8.88;;;5.32;;
8871;SDS011;4472;52.092;9.820;2023-06-10T13:37:00;12.25;;;6.15;;
8871;SDS011;4472;52.092;9.820;2023-06-10T13:39:49;6.07;;;5.47;;
8871;SDS011;4472;52.092;9.820;2023-06-10T13:42:38;6.45;;;5.63;;
8871;SDS011;4472;52.092;9.820;2023-06-10T13:45:25;5.93;;;5.30;;
8871;SDS011;4472;52.092;9.820;2023-06-10T13:48:13;10.63;;;5.78;;
8871;SDS011;4472;52.092;9.820;2023-06-10T13:51:00;6.75;;;5.90;;
8871;SDS011;4472;52.092;9.820;2023-06-10T13:53:47;6.05;;;5.47;;
8871;SDS011;4472;52.092;9.820;2023-06-10T13:56:37;7.82;;;6.05;;
8871;SDS011;4472;52.092;9.820;2023-06-10T13:59:26;6.90;;;5.15;;
8871;SDS011;4472;52.092;9.820;2023-06-10T14:02:13;7.10;;;5.45;;
8871;SDS011;4472;52.092;9.820;2023-06-10T14:05:00;5.70;;;5.20;;
8871;SDS011;4472;52.092;9.820;2023-06-10T14:07:48;5.20;;;4.72;;
8871;SDS011;4472;52.092;9.820;2023-06-10T14:10:35;6.80;;;5.40;;
8871;SDS011;4472;52.092;9.820;2023-06-10T14:13:22;7.75;;;4.97;;
8871;SDS011;4472;52.092;9.820;2023-06-10T14:16:10;10.52;;;4.88;;
8871;SDS011;4472;52.092;9.820;2023-06-10T14:18:57;6.40;;;5.03;;
8871;SDS011;4472;52.092;9.820;2023-06-10T14:21:46;6.68;;;5.53;;
8871;SDS011;4472;52.092;9.820;2023-06-10T14:24:34;7.07;;;5.32;;
8871;SDS011;4472;52.092;9.820;2023-06-10T14:27:22;8.23;;;5.53;;
8871;SDS011;4472;52.092;9.820;2023-06-10T14:30:10;9.30;;;6.22;;
8871;SDS011;4472;52.092;9.820;2023-06-10T14:32:59;4.95;;;4.47;;
8871;SDS011;4472;52.092;9.820;2023-06-10T14:35:46;9.40;;;5.13;;
8871;SDS011;4472;52.092;9.820;2023-06-10T14:38:33;5.93;;;4.93;;
8871;SDS011;4472;52.092;9.820;2023-06-10T14:41:20;6.28;;;5.13;;
8871;SDS011;4472;52.092;9.820;2023-06-10T14:44:08;5.45;;;4.78;;
8871;SDS011;4472;52.092;9.820;2023-06-10T14:46:55;5.72;;;5.03;;
8871;SDS011;4472;52.092;9.820;2023-06-10T14:49:44;6.57;;;5.13;;
8871;SDS011;4472;52.092;9.820;2023-06-10T14:52:31;6.82;;;4.82;;
8871;SDS011;4472;52.092;9.820;2023-06-10T14:55:18;5.53;;;5.00;;
8871;SDS011;4472;52.092;9.820;2023-06-10T14:58:05;5.82;;;5.10;;
8871;SDS011;4472;52.092;9.820;2023-06-10T15:00:52;7.07;;;5.05;;
8871;SDS011;4472;52.092;9.820;2023-06-10T15:03:39;7.32;;;5.47;;
8871;SDS011;4472;52.092;9.820;2023-06-10T15:06:28;5.35;;;4.85;;
8871;SDS011;4472;52.092;9.820;2023-06-10T15:09:15;4.50;;;4.15;;
8871;SDS011;4472;52.092;9.820;2023-06-10T15:12:03;6.80;;;4.68;;
8871;SDS011;4472;52.092;9.820;2023-06-10T15:14:51;6.05;;;5.30;;
8871;SDS011;4472;52.092;9.820;2023-06-10T15:17:38;6.00;;;5.10;;
8871;SDS011;4472;52.092;9.820;2023-06-10T15:20:25;6.72;;;4.78;;
8871;SDS011;4472;52.092;9.820;2023-06-10T15:23:14;12.82;;;4.32;;
8871;SDS011;4472;52.092;9.820;2023-06-10T15:26:01;9.38;;;5.18;;
8871;SDS011;4472;52.092;9.820;2023-06-10T15:28:48;5.70;;;4.30;;
8871;SDS011;4472;52.092;9.820;2023-06-10T15:31:35;6.22;;;5.22;;
8871;SDS011;4472;52.092;9.820;2023-06-10T15:34:23;7.03;;;5.72;;
8871;SDS011;4472;52.092;9.820;2023-06-10T15:37:10;7.82;;;5.78;;
8871;SDS011;4472;52.092;9.820;2023-06-10T15:39:59;7.57;;;5.53;;
8871;SDS011;4472;52.092;9.820;2023-06-10T15:42:47;8.15;;;5.75;;
8871;SDS011;4472;52.092;9.820;2023-06-10T15:45:34;5.88;;;4.80;;
8871;SDS011;4472;52.092;9.820;2023-06-10T15:48:21;6.03;;;4.45;;
8871;SDS011;4472;52.092;9.820;2023-06-10T15:51:08;5.38;;;4.88;;
8871;SDS011;4472;52.092;9.820;2023-06-10T15:53:56;4.60;;;4.22;;
8871;SDS011;4472;52.092;9.820;2023-06-10T15:56:44;8.27;;;5.15;;
8871;SDS011;4472;52.092;9.820;2023-06-10T15:59:31;4.47;;;4.07;;
8871;SDS011;4472;52.092;9.820;2023-06-10T16:02:18;6.25;;;4.82;;
8871;SDS011;4472;52.092;9.820;2023-06-10T16:05:06;5.18;;;4.38;;
8871;SDS011;4472;52.092;9.820;2023-06-10T16:07:53;5.65;;;4.93;;
8871;SDS011;4472;52.092;9.820;2023-06-10T16:10:40;11.00;;;5.07;;
8871;SDS011;4472;52.092;9.820;2023-06-10T16:13:29;8.30;;;4.95;;
8871;SDS011;4472;52.092;9.820;2023-06-10T16:16:16;5.00;;;4.60;;
8871;SDS011;4472;52.092;9.820;2023-06-10T16:19:03;5.22;;;4.55;;
8871;SDS011;4472;52.092;9.820;2023-06-10T16:21:50;5.38;;;4.88;;
8871;SDS011;4472;52.092;9.820;2023-06-10T16:24:37;6.32;;;5.13;;
8871;SDS011;4472;52.092;9.820;2023-06-10T16:27:25;8.18;;;4.53;;
8871;SDS011;4472;52.092;9.820;2023-06-10T16:30:13;7.10;;;4.97;;
8871;SDS011;4472;52.092;9.820;2023-06-10T16:33:01;7.85;;;5.07;;
8871;SDS011;4472;52.092;9.820;2023-06-10T16:35:48;7.30;;;5.10;;
8871;SDS011;4472;52.092;9.820;2023-06-10T16:38:35;5.25;;;4.70;;
8871;SDS011;4472;52.092;9.820;2023-06-10T16:41:22;4.88;;;4.40;;
8871;SDS011;4472;52.092;9.820;2023-06-10T16:44:09;5.55;;;4.85;;
8871;SDS011;4472;52.092;9.820;2023-06-10T16:47:04;8.05;;;5.05;;
8871;SDS011;4472;52.092;9.820;2023-06-10T16:49:52;6.35;;;4.90;;
8871;SDS011;4472;52.092;9.820;2023-06-10T16:52:39;5.68;;;5.18;;
8871;SDS011;4472;52.092;9.820;2023-06-10T16:55:26;6.13;;;4.97;;
8871;SDS011;4472;52.092;9.820;2023-06-10T16:58:13;7.03;;;4.85;;
8871;SDS011;4472;52.092;9.820;2023-06-10T17:01:01;8.85;;;5.50;;
8871;SDS011;4472;52.092;9.820;2023-06-10T17:03:56;11.95;;;5.40;;
8871;SDS011;4472;52.092;9.820;2023-06-10T17:06:43;12.63;;;6.15;;
8871;SDS011;4472;52.092;9.820;2023-06-10T17:09:30;7.80;;;5.90;;
8871;SDS011;4472;52.092;9.820;2023-06-10T17:12:18;9.43;;;6.07;;
8871;SDS011;4472;52.092;9.820;2023-06-10T17:15:07;8.63;;;5.30;;
8871;SDS011;4472;52.092;9.820;2023-06-10T17:17:55;8.00;;;5.67;;